^^
Grace C. Lehan Memorial Weather Station Historical Data
Daily Summary for July 9, 2021 Units:  Metric    English   Both
Daily Weekly Monthly Yearly
  High: Low: Average:
Temperature: 27.1 °C 21.5 °C 23.6 °C
Dew Point: 21.8 °C 19.1 °C 20.5 °C
Humidity: 92% 68.6% 83%
Wind Speed: 3.9km/h 0km/h 0.3km/h
Wind Gust: 14.5km/h - -
Wind- - East
Pressure: 1020.5 hPa 1018.2 hPa -
Precipitation: 0.25 mm    
 
 
Tabular Data for July 9, 2021
Time Temperature Dew Point Pressure Wind Wind Speed Wind Gust Humidity Rainfall Rate (Hourly) solar
00:04 23 °C 20.2 °C 1018.2 hPa Calm     84% 0 mm 0 W/m2
00:09 23.1 °C 20.2 °C 1018.2 hPa Calm     84% 0 mm 0 W/m2
00:14 23 °C 20.2 °C 1018.2 hPa Calm     84.1% 0 mm 0 W/m2
00:19 23 °C 20.3 °C 1018.5 hPa Calm     84.8% 0 mm 0 W/m2
00:24 22.9 °C 20.3 °C 1018.5 hPa Calm     85% 0 mm 0 W/m2
00:29 22.9 °C 20.3 °C 1018.5 hPa Calm     85% 0 mm 0 W/m2
00:34 22.9 °C 20.2 °C 1018.5 hPa Calm     84.9% 0 mm 0 W/m2
00:39 22.9 °C 20 °C 1018.5 hPa Calm     84% 0 mm 0 W/m2
00:44 22.8 °C 19.9 °C 1018.5 hPa Calm     83.6% 0 mm 0 W/m2
00:49 22.8 °C 19.8 °C 1018.5 hPa Calm     83.4% 0 mm 0 W/m2
00:54 22.8 °C 19.7 °C 1018.8 hPa Calm     83% 0 mm 0 W/m2
00:59 22.8 °C 19.8 °C 1018.5 hPa Calm     83% 0 mm 0 W/m2
01:04 22.8 °C 19.8 °C 1018.5 hPa Calm     83% 0 mm 0 W/m2
01:09 22.8 °C 19.6 °C 1018.8 hPa Calm     82.3% 0 mm 0 W/m2
01:14 22.8 °C 19.6 °C 1018.8 hPa Calm     82% 0 mm 0 W/m2
01:19 22.8 °C 19.6 °C 1018.8 hPa Calm     82% 0 mm 0 W/m2
01:24 22.7 °C 19.5 °C 1018.8 hPa Calm     82% 0 mm 0 W/m2
01:29 22.7 °C 19.5 °C 1018.8 hPa Calm     82% 0 mm 0 W/m2
01:34 22.7 °C 19.4 °C 1018.8 hPa Calm     82% 0 mm 0 W/m2
01:39 22.7 °C 19.4 °C 1018.8 hPa Calm     82% 0 mm 0 W/m2
01:44 22.6 °C 19.3 °C 1018.8 hPa Calm     81.5% 0 mm 0 W/m2
01:49 22.6 °C 19.1 °C 1018.8 hPa Calm     81% 0 mm 0 W/m2
01:54 22.6 °C 19.1 °C 1018.8 hPa Calm     81% 0 mm 0 W/m2
01:59 22.5 °C 19.2 °C 1018.8 hPa Calm     81.8% 0 mm 0 W/m2
02:04 22.4 °C 19.2 °C 1018.8 hPa Calm   1.6 km/h 82% 0 mm 0 W/m2
02:09 22.4 °C 19.2 °C 1018.8 hPa Calm   1.6 km/h 82.1% 0 mm 0 W/m2
02:14 22.3 °C 19.3 °C 1018.8 hPa Calm   1.6 km/h 83% 0 mm 0 W/m2
02:19 22.3 °C 19.3 °C 1018.8 hPa Calm   1.6 km/h 83% 0 mm 0 W/m2
02:24 22.3 °C 19.3 °C 1018.8 hPa Calm   1.6 km/h 83% 0 mm 0 W/m2
02:29 22.3 °C 19.4 °C 1018.8 hPa Calm   1.6 km/h 84% 0 mm 0 W/m2
02:34 22.3 °C 19.4 °C 1018.8 hPa Calm   1.6 km/h 84.1% 0 mm 0 W/m2
02:39 22.3 °C 19.6 °C 1018.8 hPa Calm   1.6 km/h 85% 0 mm 0 W/m2
02:44 22.2 °C 19.6 °C 1018.8 hPa Calm   1.6 km/h 85% 0 mm 0 W/m2
02:49 22.2 °C 19.8 °C 1018.8 hPa Calm   1.6 km/h 85.9% 0 mm 0 W/m2
02:54 22.2 °C 19.8 °C 1018.8 hPa Calm   1.6 km/h 86% 0 mm 0 W/m2
02:59 22.2 °C 19.7 °C 1018.8 hPa Calm   1.6 km/h 86% 0 mm 0 W/m2
03:04 22.2 °C 19.8 °C 1018.8 hPa Calm   1.6 km/h 86.4% 0 mm 0 W/m2
03:09 22.1 °C 19.8 °C 1018.8 hPa Calm     87% 0 mm 0 W/m2
03:14 22.1 °C 19.8 °C 1018.8 hPa Calm     87% 0 mm 0 W/m2
03:19 22 °C 19.7 °C 1018.8 hPa Calm     87% 0 mm 0 W/m2
03:24 21.9 °C 19.7 °C 1018.5 hPa Calm     87% 0 mm 0 W/m2
03:29 21.9 °C 19.6 °C 1018.8 hPa Calm     87% 0 mm 0 W/m2
03:34 21.8 °C 19.7 °C 1018.8 hPa Calm     87.7% 0 mm 0 W/m2
03:39 21.8 °C 19.8 °C 1018.8 hPa Calm     88% 0 mm 0 W/m2
03:44 21.8 °C 19.7 °C 1018.5 hPa Calm     88% 0 mm 0 W/m2
03:49 21.8 °C 19.7 °C 1018.5 hPa Calm     88% 0 mm 0 W/m2
03:54 21.8 °C 19.8 °C 1018.5 hPa Calm     88.4% 0 mm 0 W/m2
03:59 21.7 °C 19.8 °C 1018.5 hPa Calm     89% 0 mm 0 W/m2
04:00 21.7 °C 19.8 °C 1018.5 hPa Calm     89% 0 mm 0 W/m2
04:09 21.7 °C 19.8 °C 1018.5 hPa WNW 0.2 km/h 3.2 km/h 89% 0 mm 0 W/m2
04:14 21.7 °C 19.8 °C 1018.5 hPa Calm   3.2 km/h 89% 0 mm 0 W/m2
04:19 21.7 °C 19.8 °C 1018.8 hPa Calm   3.2 km/h 89% 0 mm 0 W/m2
04:24 21.7 °C 19.8 °C 1018.8 hPa Calm   3.2 km/h 89% 0 mm 0 W/m2
04:29 21.7 °C 19.8 °C 1018.8 hPa Calm   3.2 km/h 89% 0 mm 0 W/m2
04:34 21.7 °C 19.8 °C 1018.8 hPa Calm   3.2 km/h 89% 0 mm 0 W/m2
04:39 21.7 °C 19.8 °C 1018.8 hPa Calm     89% 0 mm 0 W/m2
04:44 21.7 °C 19.8 °C 1018.8 hPa Calm     89% 0 mm 0 W/m2
04:49 21.7 °C 19.8 °C 1018.8 hPa Calm     89% 0 mm 0 W/m2
04:54 21.6 °C 19.7 °C 1018.8 hPa Calm     89% 0 mm 0 W/m2
04:59 21.6 °C 19.7 °C 1019.2 hPa Calm     89% 0 mm 0 W/m2
05:04 21.6 °C 19.7 °C 1019.2 hPa Calm     89% 0 mm 0 W/m2
05:09 21.6 °C 19.7 °C 1019.2 hPa Calm     89% 0 mm 0 W/m2
05:14 21.5 °C 19.6 °C 1019.2 hPa Calm     89% 0 mm 0 W/m2
05:19 21.5 °C 19.7 °C 1018.8 hPa Calm     89.1% 0 mm 0 W/m2
05:24 21.6 °C 19.8 °C 1019.2 hPa Calm     89.7% 0 mm 0 W/m2
05:29 21.5 °C 19.6 °C 1019.2 hPa Calm     89.1% 0 mm 0 W/m2
05:34 21.5 °C 19.6 °C 1019.2 hPa Calm     89% 0 mm 0 W/m2
05:39 21.5 °C 19.6 °C 1019.2 hPa Calm     89% 0 mm 0 W/m2
05:44 21.5 °C 19.6 °C 1019.2 hPa Calm     89% 0 mm 0 W/m2
05:49 21.5 °C 19.6 °C 1019.2 hPa Calm     89% 0 mm 0 W/m2
05:54 21.5 °C 19.6 °C 1019.2 hPa Calm     89% 0 mm 0 W/m2
05:59 21.5 °C 19.6 °C 1019.2 hPa Calm     88.6% 0 mm 0 W/m2
06:04 21.5 °C 19.4 °C 1019.2 hPa Calm     88% 0 mm 0 W/m2
06:09 21.5 °C 19.4 °C 1019.2 hPa Calm     88.1% 0 mm 5 W/m2
06:14 21.6 °C 19.7 °C 1019.2 hPa Calm     89% 0 mm 5 W/m2
06:19 21.6 °C 19.7 °C 1019.2 hPa Calm     89% 0 mm 9 W/m2
06:24 21.6 °C 19.7 °C 1019.5 hPa Calm     89% 0 mm 12 W/m2
06:29 21.6 °C 19.7 °C 1019.5 hPa Calm     89% 0 mm 23 W/m2
06:34 21.6 °C 19.7 °C 1019.5 hPa Calm     89% 0 mm 26 W/m2
06:39 21.6 °C 19.7 °C 1019.5 hPa WNW 0.2 km/h 3.2 km/h 89% 0 mm 25 W/m2
06:44 21.6 °C 19.7 °C 1019.5 hPa Calm   3.2 km/h 89% 0 mm 19 W/m2
06:49 21.6 °C 19.6 °C 1019.5 hPa Calm   3.2 km/h 88.3% 0 mm 26 W/m2
06:54 21.6 °C 19.5 °C 1019.5 hPa Calm   3.2 km/h 88% 0 mm 26 W/m2
06:59 21.6 °C 19.6 °C 1019.5 hPa Calm   3.2 km/h 88% 0 mm 19 W/m2
07:04 21.6 °C 19.6 °C 1019.5 hPa Calm   3.2 km/h 88% 0 mm 14 W/m2
07:09 21.7 °C 19.6 °C 1019.9 hPa Calm   1.6 km/h 88% 0 mm 18 W/m2
07:14 21.7 °C 19.6 °C 1019.9 hPa Calm   1.6 km/h 88% 0 mm 21 W/m2
07:19 21.7 °C 19.6 °C 1019.9 hPa Calm   1.6 km/h 88% 0 mm 33 W/m2
07:24 21.7 °C 19.8 °C 1019.9 hPa Calm   1.6 km/h 88.7% 0 mm 37 W/m2
07:29 21.8 °C 19.9 °C 1019.9 hPa Calm   1.6 km/h 89% 0 mm 49 W/m2
07:34 21.8 °C 19.9 °C 1019.9 hPa Calm   1.6 km/h 89% 0 mm 62 W/m2
07:39 21.8 °C 19.9 °C 1019.9 hPa WNW 0.3 km/h 3.2 km/h 89% 0 mm 60 W/m2
07:44 21.8 °C 19.9 °C 1019.9 hPa Calm   3.2 km/h 89% 0 mm 39 W/m2
07:49 21.9 °C 20 °C 1020.2 hPa WNW 0.5 km/h 9.7 km/h 89% 0 mm 54 W/m2
07:54 21.9 °C 20 °C 1019.9 hPa WNW 0.6 km/h 9.7 km/h 89% 0 mm 54 W/m2
07:59 21.9 °C 20 °C 1019.9 hPa WNW 0.6 km/h 9.7 km/h 89% 0 mm 51 W/m2
08:00 21.9 °C 20 °C 1019.9 hPa Calm   9.7 km/h 89% 0 mm 23 W/m2
08:09 21.9 °C 20 °C 1019.9 hPa Calm   1.6 km/h 89% 0 mm 49 W/m2
08:14 21.9 °C 20 °C 1020.2 hPa NNW 1.1 km/h 14.5 km/h 89% 0 mm 62 W/m2
08:19 21.9 °C 20.1 °C 1020.2 hPa North 0.2 km/h 14.5 km/h 89.1% 0 mm 65 W/m2
08:24 21.9 °C 20.2 °C 1019.9 hPa Calm   14.5 km/h 90% 0 mm 58 W/m2
08:29 22 °C 20.3 °C 1020.2 hPa Calm   14.5 km/h 90% 0.25 mm 62 W/m2
08:34 22.1 °C 20.3 °C 1020.2 hPa Calm   14.5 km/h 90.2% 0.25 mm 77 W/m2
08:39 22.1 °C 20.6 °C 1020.2 hPa Calm   1.6 km/h 91% 0.25 mm 79 W/m2
08:44 22.2 °C 20.7 °C 1020.2 hPa North 0.2 km/h 3.2 km/h 91.3% 0.25 mm 65 W/m2
08:49 22.2 °C 20.9 °C 1020.2 hPa North 0.2 km/h 4.8 km/h 92% 0.25 mm 74 W/m2
08:54 22.3 °C 20.9 °C 1020.2 hPa Calm   4.8 km/h 92% 0.25 mm 74 W/m2
08:59 22.3 °C 20.9 °C 1020.2 hPa Calm   4.8 km/h 92% 0.25 mm 76 W/m2
09:04 22.3 °C 20.9 °C 1019.9 hPa Calm   4.8 km/h 92% 0.25 mm 93 W/m2
09:09 22.3 °C 20.9 °C 1019.9 hPa Calm   1.6 km/h 92% 0 mm 148 W/m2
09:14 22.5 °C 21.1 °C 1020.2 hPa NNE 0.5 km/h 3.2 km/h 92% 0 mm 160 W/m2
09:19 22.6 °C 21.1 °C 1020.2 hPa Calm   3.2 km/h 91.5% 0 mm 146 W/m2
09:24 22.6 °C 21.1 °C 1020.2 hPa Calm   3.2 km/h 91% 0 mm 90 W/m2
09:29 22.7 °C 21.1 °C 1020.2 hPa Calm   3.2 km/h 90.5% 0 mm 132 W/m2
09:34 22.7 °C 21 °C 1020.2 hPa Calm   3.2 km/h 90% 0 mm 404 W/m2
09:39 22.9 °C 21.1 °C 1020.2 hPa NE 1 km/h 8 km/h 89.7% 0 mm 271 W/m2
09:44 23.1 °C 20.9 °C 1020.2 hPa NE 0.6 km/h 8 km/h 88% 0 mm 246 W/m2
09:49 23.2 °C 20.7 °C 1020.2 hPa ENE 1 km/h 8 km/h 85.8% 0 mm 246 W/m2
09:54 23.4 °C 20.8 °C 1020.2 hPa ENE 1.4 km/h 9.7 km/h 85.6% 0 mm 229 W/m2
09:59 23.5 °C 20.7 °C 1020.2 hPa ENE 1.4 km/h 9.7 km/h 84% 0 mm 179 W/m2
10:04 23.6 °C 20.6 °C 1020.2 hPa ENE 0.2 km/h 9.7 km/h 82.8% 0 mm 216 W/m2
10:09 23.8 °C 20.6 °C 1019.9 hPa Calm   3.2 km/h 82.5% 0 mm 225 W/m2
10:14 23.9 °C 20.7 °C 1020.2 hPa Calm   3.2 km/h 82% 0 mm 281 W/m2
10:19 24.1 °C 20.8 °C 1020.2 hPa ENE 1.8 km/h 8 km/h 81.7% 0 mm 360 W/m2
10:24 24.4 °C 20.9 °C 1020.2 hPa ENE 0.8 km/h 8 km/h 81% 0 mm 360 W/m2
10:29 24.6 °C 20.6 °C 1020.2 hPa ENE 1.3 km/h 8 km/h 78.1% 0 mm 471 W/m2
10:34 24.8 °C 20.8 °C 1020.2 hPa ENE 1 km/h 8 km/h 78.2% 0 mm 471 W/m2
10:39 25.1 °C 20.8 °C 1020.2 hPa ENE 1.4 km/h 8 km/h 77.2% 0 mm 359 W/m2
10:44 25.3 °C 20.7 °C 1020.2 hPa ENE 2.1 km/h 8 km/h 75.7% 0 mm 564 W/m2
10:49 25.6 °C 20.9 °C 1020.2 hPa ENE 1.1 km/h 8 km/h 75.5% 0 mm 705 W/m2
10:54 25.9 °C 20.6 °C 1020.2 hPa ENE 3.2 km/h 9.7 km/h 72.5% 0 mm 603 W/m2
10:59 26.3 °C 20.7 °C 1020.2 hPa ENE 2.7 km/h 9.7 km/h 71.3% 0 mm 896 W/m2
11:04 26.6 °C 20.9 °C 1020.2 hPa ENE 0.2 km/h 9.7 km/h 71.2% 0 mm 896 W/m2
11:09 26.7 °C 20.8 °C 1020.5 hPa East 3.4 km/h 8 km/h 69.9% 0 mm 471 W/m2
11:14 26.7 °C 20.4 °C 1020.5 hPa ENE 2.6 km/h 8 km/h 68.6% 0 mm 343 W/m2
11:19 26.6 °C 20.6 °C 1020.5 hPa ENE 0.8 km/h 8 km/h 69.7% 0 mm 156 W/m2
11:24 26.3 °C 20.3 °C 1020.5 hPa ENE 0.3 km/h 8 km/h 69.3% 0 mm 144 W/m2
11:29 26.1 °C 20.1 °C 1020.5 hPa East 2.9 km/h 9.7 km/h 69.7% 0 mm 137 W/m2
11:34 25.9 °C 19.9 °C 1020.2 hPa East 1 km/h 9.7 km/h 69.5% 0 mm 139 W/m2
11:39 25.8 °C 19.9 °C 1020.2 hPa East 1.1 km/h 6.4 km/h 70% 0 mm 144 W/m2
11:43 25.8 °C 19.9 °C 1020.2 hPa ENE 0.5 km/h 8 km/h 70.2% 0 mm 113 W/m2
12:09 25.4 °C 20.1 °C 1020.2 hPa East 0.2 km/h 4.8 km/h 72.2% 0 mm 100 W/m2
12:14 25.4 °C 20 °C 1020.2 hPa East 0.5 km/h 4.8 km/h 71.9% 0 mm 95 W/m2
12:19 25.4 °C 20.1 °C 1020.2 hPa Calm   4.8 km/h 72.4% 0 mm 93 W/m2
12:24 25.4 °C 20.4 °C 1020.2 hPa Calm   4.8 km/h 73.7% 0 mm 93 W/m2
12:29 25.4 °C 20.2 °C 1020.2 hPa Calm   4.8 km/h 72.9% 0 mm 100 W/m2
12:34 25.4 °C 20.3 °C 1020.2 hPa East 0.2 km/h 4.8 km/h 73.2% 0 mm 104 W/m2
12:39 25.4 °C 20.3 °C 1019.9 hPa Calm   1.6 km/h 73.2% 0 mm 120 W/m2
12:44 25.5 °C 20.3 °C 1019.9 hPa Calm   1.6 km/h 73% 0 mm 127 W/m2
12:49 25.5 °C 20.4 °C 1019.9 hPa Calm   1.6 km/h 73.2% 0 mm 113 W/m2
12:54 25.6 °C 20.6 °C 1019.9 hPa ENE 1 km/h 6.4 km/h 73.8% 0 mm 111 W/m2
12:59 25.6 °C 20.5 °C 1019.9 hPa Calm   6.4 km/h 73.2% 0 mm 95 W/m2
13:04 25.7 °C 20.6 °C 1019.9 hPa Calm   6.4 km/h 73.4% 0 mm 93 W/m2
13:09 25.6 °C 20.4 °C 1019.9 hPa Calm   1.6 km/h 73.2% 0 mm 79 W/m2
13:14 25.6 °C 20.4 °C 1019.9 hPa Calm   1.6 km/h 73.1% 0 mm 74 W/m2
13:19 25.6 °C 20.4 °C 1019.9 hPa Calm   1.6 km/h 73.3% 0 mm 67 W/m2
13:24 25.6 °C 20.4 °C 1019.9 hPa Calm   1.6 km/h 73.2% 0 mm 65 W/m2
13:29 25.6 °C 20.6 °C 1019.9 hPa Calm   1.6 km/h 73.8% 0 mm 53 W/m2
13:34 25.6 °C 20.6 °C 1019.9 hPa Calm   1.6 km/h 74% 0 mm 46 W/m2
13:39 25.5 °C 20.7 °C 1019.5 hPa Calm     74.8% 0 mm 47 W/m2
13:44 25.5 °C 20.8 °C 1019.5 hPa ENE 1.1 km/h 6.4 km/h 75.4% 0 mm 51 W/m2
13:49 25.4 °C 20.8 °C 1019.5 hPa ENE 0.2 km/h 6.4 km/h 76% 0 mm 56 W/m2
13:54 25.2 °C 21.1 °C 1019.5 hPa ENE 0.3 km/h 6.4 km/h 77.8% 0 mm 63 W/m2
13:59 24.9 °C 20.9 °C 1019.5 hPa NNE 2.9 km/h 11.3 km/h 78.3% 0 mm 67 W/m2
14:04 24.7 °C 20.9 °C 1019.5 hPa NE 0.2 km/h 11.3 km/h 79.6% 0 mm 72 W/m2
14:09 24.5 °C 21 °C 1019.5 hPa Calm   3.2 km/h 81.1% 0 mm 83 W/m2
14:14 24.3 °C 20.9 °C 1019.5 hPa Calm   3.2 km/h 81.6% 0 mm 95 W/m2
14:19 24.3 °C 21 °C 1019.5 hPa Calm   3.2 km/h 82.2% 0 mm 105 W/m2
14:24 24.3 °C 21.3 °C 1019.5 hPa Calm   3.2 km/h 83.3% 0 mm 148 W/m2
14:29 24.3 °C 21.4 °C 1019.5 hPa Calm   3.2 km/h 84% 0 mm 174 W/m2
14:34 24.4 °C 21.6 °C 1019.5 hPa Calm   3.2 km/h 84% 0 mm 258 W/m2
14:39 24.6 °C 21.8 °C 1019.5 hPa Calm     84.5% 0 mm 258 W/m2
14:44 24.7 °C 21.7 °C 1019.5 hPa Calm     83.1% 0 mm 174 W/m2
14:49 24.8 °C 21.6 °C 1019.2 hPa Calm     82.3% 0 mm 264 W/m2
14:54 25.1 °C 21.7 °C 1019.2 hPa Calm     81.8% 0 mm 343 W/m2
14:59 25.2 °C 21.6 °C 1019.2 hPa Calm     80.5% 0 mm 213 W/m2
15:04 25.3 °C 21.3 °C 1019.2 hPa Calm     78.4% 0 mm 285 W/m2
15:09 25.5 °C 21.5 °C 1019.2 hPa Calm     78.4% 0 mm 267 W/m2
15:14 25.7 °C 21.2 °C 1019.2 hPa Calm     76.2% 0 mm 490 W/m2
15:19 25.9 °C 21.4 °C 1019.2 hPa Calm     76.5% 0 mm 490 W/m2
15:24 26.1 °C 21.4 °C 1019.2 hPa NE 0.6 km/h 4.8 km/h 75.3% 0 mm 318 W/m2
15:29 26.2 °C 21.2 °C 1019.2 hPa NE 0.3 km/h 4.8 km/h 73.9% 0 mm 239 W/m2
15:34 26.3 °C 21.4 °C 1019.2 hPa NE 0.2 km/h 4.8 km/h 74.7% 0 mm 345 W/m2
15:39 26.3 °C 21.4 °C 1019.2 hPa NE 0.2 km/h 3.2 km/h 74.1% 0 mm 360 W/m2
15:44 26.6 °C 21.5 °C 1019.2 hPa NE 0.5 km/h 6.4 km/h 73.8% 0 mm 777 W/m2
15:49 26.8 °C 21.4 °C 1018.8 hPa Calm   6.4 km/h 72.3% 0 mm 777 W/m2
15:54 27 °C 21.3 °C 1018.8 hPa Calm   6.4 km/h 71.1% 0 mm 239 W/m2
15:59 27.1 °C 21.4 °C 1018.8 hPa ENE 1.4 km/h 6.4 km/h 71.3% 0 mm 209 W/m2
16:04 27.1 °C 21.3 °C 1018.8 hPa Calm     71% 0 mm 199 W/m2
16:09 27.1 °C 21.3 °C 1018.8 hPa NE 2.9 km/h 12.9 km/h 71% 0 mm 283 W/m2
16:14 27.1 °C 21.4 °C 1018.8 hPa NE 1.8 km/h 14.5 km/h 71.3% 0 mm 267 W/m2
16:19 27.1 °C 21.4 °C 1018.8 hPa ENE 3.9 km/h 14.5 km/h 71.3% 0 mm 209 W/m2
16:24 27.1 °C 21.6 °C 1018.8 hPa NE 1.4 km/h 14.5 km/h 72.1% 0 mm 93 W/m2
16:29 26.9 °C 21.4 °C 1018.8 hPa ENE 1.8 km/h 14.5 km/h 72% 0 mm 95 W/m2
16:34 26.7 °C 21.4 °C 1018.8 hPa ENE 2.3 km/h 14.5 km/h 72.9% 0 mm 76 W/m2
16:39 26.6 °C 21.4 °C 1019.2 hPa ENE 1.3 km/h 8 km/h 73.2% 0 mm 63 W/m2
16:44 26.4 °C 21.3 °C 1019.2 hPa ENE 1 km/h 8 km/h 73.5% 0 mm 65 W/m2
16:49 26.3 °C 21.3 °C 1019.2 hPa ENE 0.2 km/h 8 km/h 74.1% 0 mm 62 W/m2
16:54 26.1 °C 21.3 °C 1019.2 hPa ENE 0.3 km/h 8 km/h 75.2% 0 mm 81 W/m2
16:59 25.8 °C 21.3 °C 1019.2 hPa ESE 2.4 km/h 8 km/h 76.2% 0 mm 77 W/m2
17:04 25.6 °C 21.4 °C 1019.2 hPa ESE 0.6 km/h 8 km/h 77.9% 0 mm 62 W/m2
17:09 25.3 °C 21.4 °C 1019.2 hPa Calm   4.8 km/h 79% 0 mm 53 W/m2
17:14 25.1 °C 21.4 °C 1019.2 hPa ESE 0.2 km/h 4.8 km/h 80% 0 mm 69 W/m2
17:19 24.9 °C 21.4 °C 1019.2 hPa East 0.2 km/h 4.8 km/h 81% 0 mm 67 W/m2
17:24 24.8 °C 21.3 °C 1019.2 hPa East 0.2 km/h 4.8 km/h 81.1% 0 mm 49 W/m2
17:29 24.7 °C 21.4 °C 1019.2 hPa East 0.2 km/h 4.8 km/h 82% 0 mm 63 W/m2
17:34 24.7 °C 21.4 °C 1019.2 hPa Calm   4.8 km/h 82% 0 mm 63 W/m2
17:39 24.7 °C 21.4 °C 1019.2 hPa Calm     82% 0 mm 63 W/m2
17:44 24.6 °C 21.4 °C 1019.2 hPa Calm   1.6 km/h 82.5% 0 mm 63 W/m2
17:49 24.6 °C 21.3 °C 1019.2 hPa East 1.3 km/h 6.4 km/h 82.2% 0 mm 65 W/m2
17:54 24.6 °C 21.3 °C 1019.2 hPa Calm   6.4 km/h 82% 0 mm 56 W/m2
17:59 24.5 °C 21.1 °C 1019.5 hPa ENE 0.5 km/h 6.4 km/h 81.4% 0 mm 44 W/m2
18:04 24.4 °C 21 °C 1019.5 hPa ENE 0.6 km/h 6.4 km/h 81.1% 0 mm 44 W/m2
18:09 24.4 °C 21.1 °C 1019.5 hPa ENE 1.3 km/h 6.4 km/h 81.5% 0 mm 44 W/m2
18:14 24.4 °C 21.1 °C 1019.2 hPa ENE 0.6 km/h 6.4 km/h 82% 0 mm 49 W/m2
18:19 24.3 °C 21.1 °C 1019.2 hPa ENE 0.2 km/h 6.4 km/h 82% 0 mm 49 W/m2
18:24 24.3 °C 21.1 °C 1019.2 hPa ENE 0.3 km/h 6.4 km/h 82% 0 mm 47 W/m2
18:29 24.3 °C 21.2 °C 1018.8 hPa ENE 0.6 km/h 6.4 km/h 82.5% 0 mm 47 W/m2
18:34 24.3 °C 21.2 °C 1018.8 hPa Calm   6.4 km/h 83% 0 mm 47 W/m2
18:39 24.3 °C 21.2 °C 1019.2 hPa ENE 0.3 km/h 3.2 km/h 83% 0 mm 46 W/m2
18:44 24.3 °C 21.2 °C 1019.2 hPa Calm   3.2 km/h 83% 0 mm 42 W/m2
18:49 24.2 °C 21.2 °C 1019.2 hPa Calm   3.2 km/h 83% 0 mm 40 W/m2
18:54 24.2 °C 21.2 °C 1019.2 hPa Calm   3.2 km/h 83% 0 mm 37 W/m2
18:59 24.2 °C 21.2 °C 1019.2 hPa Calm   3.2 km/h 83% 0 mm 35 W/m2
19:04 24.2 °C 21.2 °C 1019.2 hPa Calm   3.2 km/h 83% 0 mm 37 W/m2
19:09 24.3 °C 21.2 °C 1019.5 hPa Calm     83% 0 mm 32 W/m2
19:14 24.3 °C 21.2 °C 1019.5 hPa Calm     83% 0 mm 30 W/m2
19:19 24.2 °C 21.2 °C 1019.5 hPa Calm     83.2% 0 mm 25 W/m2
19:24 24.2 °C 21.2 °C 1019.5 hPa Calm     83.1% 0 mm 18 W/m2
19:29 24.2 °C 21.2 °C 1019.5 hPa Calm     83% 0 mm 14 W/m2
19:34 24.2 °C 21.1 °C 1019.5 hPa Calm     83% 0 mm 11 W/m2
19:39 24.2 °C 21.2 °C 1019.5 hPa Calm     83.6% 0 mm 11 W/m2
19:44 24.1 °C 21.2 °C 1019.5 hPa Calm     83.6% 0 mm 11 W/m2
19:49 24.1 °C 21 °C 1019.5 hPa Calm     83% 0 mm 7 W/m2
19:54 24.1 °C 21 °C 1019.5 hPa Calm     83% 0 mm 5 W/m2
19:59 24 °C 20.9 °C 1019.5 hPa Calm     83% 0 mm 0 W/m2
20:00 24 °C 20.9 °C 1019.5 hPa Calm     83% 0 mm 0 W/m2
20:09 23.9 °C 21 °C 1019.9 hPa Calm     83.7% 0 mm 0 W/m2
20:14 23.9 °C 21 °C 1019.5 hPa Calm     84% 0 mm 0 W/m2
20:19 23.8 °C 21 °C 1019.5 hPa Calm     84% 0 mm 0 W/m2
20:24 23.8 °C 20.9 °C 1019.9 hPa Calm     84% 0 mm 0 W/m2
20:29 23.8 °C 20.9 °C 1019.9 hPa Calm     84% 0 mm 0 W/m2
20:34 23.8 °C 20.9 °C 1019.9 hPa Calm     84% 0 mm 0 W/m2
20:39 23.7 °C 21 °C 1019.9 hPa Calm     84.7% 0 mm 0 W/m2
20:44 23.7 °C 21.1 °C 1020.2 hPa Calm     85% 0 mm 0 W/m2
20:49 23.7 °C 21.1 °C 1020.2 hPa Calm     85% 0 mm 0 W/m2
20:54 23.7 °C 21 °C 1020.2 hPa Calm     85% 0 mm 0 W/m2
20:59 23.7 °C 21 °C 1020.2 hPa Calm     85% 0 mm 0 W/m2
21:04 23.7 °C 21 °C 1020.2 hPa Calm     85% 0 mm 0 W/m2
21:09 23.7 °C 21 °C 1020.2 hPa Calm     85% 0 mm 0 W/m2
21:14 23.7 °C 21 °C 1020.2 hPa Calm     85% 0 mm 0 W/m2
21:19 23.7 °C 21 °C 1020.2 hPa Calm     85% 0 mm 0 W/m2
21:24 23.6 °C 20.9 °C 1020.5 hPa Calm     85% 0 mm 0 W/m2
21:29 23.6 °C 20.9 °C 1020.5 hPa Calm     85% 0 mm 0 W/m2
21:34 23.6 °C 21 °C 1020.2 hPa Calm     85.6% 0 mm 0 W/m2
21:39 23.5 °C 21 °C 1020.2 hPa Calm     86% 0 mm 0 W/m2
21:44 23.4 °C 20.9 °C 1020.2 hPa Calm     86% 0 mm 0 W/m2
21:49 23.3 °C 20.9 °C 1020.2 hPa Calm     86% 0 mm 0 W/m2
21:54 23.3 °C 20.8 °C 1019.9 hPa Calm     86% 0 mm 0 W/m2
21:59 23.2 °C 20.8 °C 1020.2 hPa Calm     86% 0 mm 0 W/m2
22:04 23.2 °C 20.8 °C 1020.2 hPa Calm     86.4% 0 mm 0 W/m2
22:09 23.2 °C 20.9 °C 1019.9 hPa Calm     87% 0 mm 0 W/m2
22:14 23.1 °C 20.8 °C 1020.2 hPa Calm     87% 0 mm 0 W/m2
22:19 23.1 °C 20.8 °C 1019.9 hPa Calm     87% 0 mm 0 W/m2
22:24 23.1 °C 20.9 °C 1020.2 hPa Calm     87.5% 0 mm 0 W/m2
22:29 23.1 °C 20.9 °C 1020.2 hPa Calm     88% 0 mm 0 W/m2
22:34 23 °C 20.9 °C 1020.2 hPa Calm     88% 0 mm 0 W/m2
22:39 22.9 °C 20.8 °C 1020.2 hPa Calm     88% 0 mm 0 W/m2
22:44 22.9 °C 20.8 °C 1020.2 hPa Calm     88% 0 mm 0 W/m2
22:49 22.8 °C 20.8 °C 1020.2 hPa Calm     88.3% 0 mm 0 W/m2
22:54 22.8 °C 20.9 °C 1020.2 hPa Calm     89% 0 mm 0 W/m2
22:59 22.8 °C 20.8 °C 1020.2 hPa Calm     89% 0 mm 0 W/m2
23:04 22.7 °C 20.8 °C 1019.9 hPa Calm     89% 0 mm 0 W/m2
23:09 22.6 °C 20.7 °C 1019.9 hPa Calm     89% 0 mm 0 W/m2
23:14 22.6 °C 20.7 °C 1019.9 hPa Calm     89% 0 mm 0 W/m2
23:19 22.5 °C 20.6 °C 1019.9 hPa Calm     89% 0 mm 0 W/m2
23:24 22.4 °C 20.6 °C 1020.2 hPa Calm     89% 0 mm 0 W/m2
23:29 22.4 °C 20.5 °C 1020.2 hPa Calm     89% 0 mm 0 W/m2
23:34 22.3 °C 20.5 °C 1020.2 hPa Calm     89.5% 0 mm 0 W/m2
23:39 22.3 °C 20.6 °C 1020.2 hPa Calm     90% 0 mm 0 W/m2
23:44 22.2 °C 20.5 °C 1020.2 hPa Calm     90% 0 mm 0 W/m2
23:49 22.1 °C 20.4 °C 1020.2 hPa Calm     90% 0 mm 0 W/m2
23:54 22.1 °C 20.4 °C 1020.2 hPa Calm     90% 0 mm 0 W/m2
23:59 22 °C 20.5 °C 1020.5 hPa Calm     91% 0 mm 0 W/m2
Hartford County Weather
Compliments of Weather Underground - 2 mb